sensor_id;sensor_type;location;lat;lon;timestamp;P1;durP1;ratioP1;P2;durP2;ratioP2
18677;SDS011;9469;51.114;13.914;2023-12-20T00:01:44;4.37;;;3.97;;
18677;SDS011;9469;51.114;13.914;2023-12-20T00:06:50;4.30;;;3.87;;
18677;SDS011;9469;51.114;13.914;2023-12-20T00:11:59;4.30;;;3.90;;
18677;SDS011;9469;51.114;13.914;2023-12-20T00:17:06;4.83;;;4.23;;
18677;SDS011;9469;51.114;13.914;2023-12-20T00:22:14;6.50;;;3.63;;
18677;SDS011;9469;51.114;13.914;2023-12-20T00:27:25;4.37;;;3.60;;
18677;SDS011;9469;51.114;13.914;2023-12-20T00:32:32;5.37;;;4.53;;
18677;SDS011;9469;51.114;13.914;2023-12-20T00:37:39;5.40;;;4.00;;
18677;SDS011;9469;51.114;13.914;2023-12-20T00:42:48;4.07;;;3.57;;
18677;SDS011;9469;51.114;13.914;2023-12-20T00:47:54;4.43;;;4.03;;
18677;SDS011;9469;51.114;13.914;2023-12-20T00:53:01;4.93;;;3.80;;
18677;SDS011;9469;51.114;13.914;2023-12-20T00:58:12;3.93;;;3.53;;
18677;SDS011;9469;51.114;13.914;2023-12-20T01:03:19;3.73;;;3.43;;
18677;SDS011;9469;51.114;13.914;2023-12-20T01:08:25;3.03;;;2.73;;
18677;SDS011;9469;51.114;13.914;2023-12-20T01:13:34;3.40;;;3.10;;
18677;SDS011;9469;51.114;13.914;2023-12-20T01:18:44;3.57;;;3.27;;
18677;SDS011;9469;51.114;13.914;2023-12-20T01:23:51;3.40;;;3.10;;
18677;SDS011;9469;51.114;13.914;2023-12-20T01:28:59;4.13;;;3.20;;
18677;SDS011;9469;51.114;13.914;2023-12-20T01:34:08;3.33;;;3.03;;
18677;SDS011;9469;51.114;13.914;2023-12-20T01:39:14;3.03;;;2.80;;
18677;SDS011;9469;51.114;13.914;2023-12-20T01:44:31;2.97;;;2.53;;
18677;SDS011;9469;51.114;13.914;2023-12-20T01:49:36;2.60;;;2.40;;
18677;SDS011;9469;51.114;13.914;2023-12-20T01:54:42;2.57;;;2.37;;
18677;SDS011;9469;51.114;13.914;2023-12-20T01:59:51;2.43;;;2.23;;
18677;SDS011;9469;51.114;13.914;2023-12-20T02:04:56;2.70;;;2.37;;
18677;SDS011;9469;51.114;13.914;2023-12-20T02:10:04;2.37;;;2.20;;
18677;SDS011;9469;51.114;13.914;2023-12-20T02:15:12;2.20;;;2.00;;
18677;SDS011;9469;51.114;13.914;2023-12-20T02:20:18;2.10;;;1.90;;
18677;SDS011;9469;51.114;13.914;2023-12-20T02:25:26;2.53;;;2.20;;
18677;SDS011;9469;51.114;13.914;2023-12-20T02:30:31;3.17;;;1.87;;
18677;SDS011;9469;51.114;13.914;2023-12-20T02:35:37;2.10;;;2.00;;
18677;SDS011;9469;51.114;13.914;2023-12-20T02:40:44;1.40;;;1.30;;
18677;SDS011;9469;51.114;13.914;2023-12-20T02:45:51;2.07;;;1.50;;
18677;SDS011;9469;51.114;13.914;2023-12-20T02:50:56;1.53;;;1.43;;
18677;SDS011;9469;51.114;13.914;2023-12-20T02:56:05;1.80;;;1.70;;
18677;SDS011;9469;51.114;13.914;2023-12-20T03:01:10;1.90;;;1.80;;
18677;SDS011;9469;51.114;13.914;2023-12-20T03:06:16;2.67;;;1.67;;
18677;SDS011;9469;51.114;13.914;2023-12-20T03:11:28;3.83;;;2.00;;
18677;SDS011;9469;51.114;13.914;2023-12-20T03:16:33;1.93;;;1.83;;
18677;SDS011;9469;51.114;13.914;2023-12-20T03:21:39;1.87;;;1.77;;
18677;SDS011;9469;51.114;13.914;2023-12-20T03:26:48;1.83;;;1.73;;
18677;SDS011;9469;51.114;13.914;2023-12-20T03:31:53;1.73;;;1.60;;
18677;SDS011;9469;51.114;13.914;2023-12-20T03:36:59;2.00;;;1.90;;
18677;SDS011;9469;51.114;13.914;2023-12-20T03:42:06;1.83;;;1.73;;
18677;SDS011;9469;51.114;13.914;2023-12-20T03:47:13;2.00;;;1.90;;
18677;SDS011;9469;51.114;13.914;2023-12-20T03:52:19;1.80;;;1.70;;
18677;SDS011;9469;51.114;13.914;2023-12-20T03:57:27;3.13;;;2.10;;
18677;SDS011;9469;51.114;13.914;2023-12-20T04:02:32;1.93;;;1.83;;
18677;SDS011;9469;51.114;13.914;2023-12-20T04:07:40;3.37;;;1.80;;
18677;SDS011;9469;51.114;13.914;2023-12-20T04:12:48;2.63;;;2.10;;
18677;SDS011;9469;51.114;13.914;2023-12-20T04:17:54;2.10;;;2.00;;
18677;SDS011;9469;51.114;13.914;2023-12-20T04:22:59;2.50;;;1.90;;
18677;SDS011;9469;51.114;13.914;2023-12-20T04:28:07;2.37;;;2.27;;
18677;SDS011;9469;51.114;13.914;2023-12-20T04:33:12;2.20;;;1.93;;
18677;SDS011;9469;51.114;13.914;2023-12-20T04:38:18;1.87;;;1.77;;
18677;SDS011;9469;51.114;13.914;2023-12-20T04:43:25;2.03;;;1.93;;
18677;SDS011;9469;51.114;13.914;2023-12-20T04:48:31;6.17;;;2.30;;
18677;SDS011;9469;51.114;13.914;2023-12-20T04:53:36;2.37;;;2.17;;
18677;SDS011;9469;51.114;13.914;2023-12-20T04:58:45;3.53;;;2.67;;
18677;SDS011;9469;51.114;13.914;2023-12-20T05:03:50;2.60;;;2.23;;
18677;SDS011;9469;51.114;13.914;2023-12-20T05:08:55;2.97;;;2.67;;
18677;SDS011;9469;51.114;13.914;2023-12-20T05:14:03;2.20;;;2.10;;
18677;SDS011;9469;51.114;13.914;2023-12-20T05:19:09;3.77;;;2.83;;
18677;SDS011;9469;51.114;13.914;2023-12-20T05:24:16;2.37;;;2.17;;
18677;SDS011;9469;51.114;13.914;2023-12-20T05:29:25;2.50;;;2.30;;
18677;SDS011;9469;51.114;13.914;2023-12-20T05:34:31;6.30;;;2.83;;
18677;SDS011;9469;51.114;13.914;2023-12-20T05:39:37;1.83;;;1.73;;
18677;SDS011;9469;51.114;13.914;2023-12-20T05:44:48;1.83;;;1.73;;
18677;SDS011;9469;51.114;13.914;2023-12-20T05:49:56;1.90;;;1.80;;
18677;SDS011;9469;51.114;13.914;2023-12-20T05:55:04;2.37;;;2.17;;
18677;SDS011;9469;51.114;13.914;2023-12-20T06:00:13;4.33;;;2.87;;
18677;SDS011;9469;51.114;13.914;2023-12-20T06:05:20;2.03;;;1.93;;
18677;SDS011;9469;51.114;13.914;2023-12-20T06:10:28;6.27;;;5.03;;
18677;SDS011;9469;51.114;13.914;2023-12-20T06:15:38;2.00;;;1.90;;
18677;SDS011;9469;51.114;13.914;2023-12-20T06:20:44;2.17;;;2.07;;
18677;SDS011;9469;51.114;13.914;2023-12-20T06:25:50;2.17;;;2.07;;
18677;SDS011;9469;51.114;13.914;2023-12-20T06:30:59;2.73;;;2.53;;
18677;SDS011;9469;51.114;13.914;2023-12-20T06:36:10;2.80;;;2.50;;
18677;SDS011;9469;51.114;13.914;2023-12-20T06:41:18;2.80;;;2.60;;
18677;SDS011;9469;51.114;13.914;2023-12-20T06:46:29;3.67;;;3.30;;
18677;SDS011;9469;51.114;13.914;2023-12-20T06:51:37;5.60;;;3.43;;
18677;SDS011;9469;51.114;13.914;2023-12-20T06:56:42;4.70;;;3.70;;
18677;SDS011;9469;51.114;13.914;2023-12-20T07:01:54;4.40;;;3.17;;
18677;SDS011;9469;51.114;13.914;2023-12-20T07:07:01;4.23;;;3.60;;
18677;SDS011;9469;51.114;13.914;2023-12-20T07:12:06;4.70;;;2.57;;
18677;SDS011;9469;51.114;13.914;2023-12-20T07:17:16;2.80;;;1.97;;
18677;SDS011;9469;51.114;13.914;2023-12-20T07:22:24;6.43;;;2.33;;
18677;SDS011;9469;51.114;13.914;2023-12-20T07:27:31;3.67;;;2.03;;
18677;SDS011;9469;51.114;13.914;2023-12-20T07:32:39;3.30;;;1.70;;
18677;SDS011;9469;51.114;13.914;2023-12-20T07:37:47;8.23;;;2.47;;
18677;SDS011;9469;51.114;13.914;2023-12-20T07:42:52;4.90;;;2.93;;
18677;SDS011;9469;51.114;13.914;2023-12-20T07:48:03;3.50;;;3.13;;
18677;SDS011;9469;51.114;13.914;2023-12-20T07:53:09;4.10;;;3.80;;
18677;SDS011;9469;51.114;13.914;2023-12-20T07:58:15;6.57;;;4.10;;
18677;SDS011;9469;51.114;13.914;2023-12-20T08:03:23;6.43;;;5.40;;
18677;SDS011;9469;51.114;13.914;2023-12-20T08:08:30;5.77;;;4.77;;
18677;SDS011;9469;51.114;13.914;2023-12-20T08:13:37;5.27;;;4.77;;
18677;SDS011;9469;51.114;13.914;2023-12-20T08:18:47;4.93;;;4.43;;
18677;SDS011;9469;51.114;13.914;2023-12-20T08:23:52;4.90;;;4.40;;
18677;SDS011;9469;51.114;13.914;2023-12-20T08:29:03;5.17;;;4.77;;
18677;SDS011;9469;51.114;13.914;2023-12-20T08:34:14;5.60;;;4.43;;
18677;SDS011;9469;51.114;13.914;2023-12-20T08:39:22;8.50;;;6.10;;
18677;SDS011;9469;51.114;13.914;2023-12-20T08:44:29;5.63;;;4.27;;
18677;SDS011;9469;51.114;13.914;2023-12-20T08:49:38;8.43;;;4.07;;
18677;SDS011;9469;51.114;13.914;2023-12-20T08:54:43;4.03;;;3.33;;
18677;SDS011;9469;51.114;13.914;2023-12-20T08:59:49;3.13;;;2.83;;
18677;SDS011;9469;51.114;13.914;2023-12-20T09:04:57;2.83;;;2.30;;
18677;SDS011;9469;51.114;13.914;2023-12-20T09:10:03;4.03;;;2.23;;
18677;SDS011;9469;51.114;13.914;2023-12-20T09:15:09;3.90;;;2.60;;
18677;SDS011;9469;51.114;13.914;2023-12-20T09:20:18;2.37;;;2.17;;
18677;SDS011;9469;51.114;13.914;2023-12-20T09:25:25;2.33;;;1.70;;
18677;SDS011;9469;51.114;13.914;2023-12-20T09:30:34;2.87;;;1.80;;
18677;SDS011;9469;51.114;13.914;2023-12-20T09:35:44;4.90;;;2.07;;
18677;SDS011;9469;51.114;13.914;2023-12-20T09:40:50;2.50;;;2.07;;
18677;SDS011;9469;51.114;13.914;2023-12-20T09:45:55;2.57;;;1.60;;
18677;SDS011;9469;51.114;13.914;2023-12-20T09:51:08;4.33;;;1.83;;
18677;SDS011;9469;51.114;13.914;2023-12-20T09:56:14;1.67;;;1.40;;
18677;SDS011;9469;51.114;13.914;2023-12-20T10:01:20;5.63;;;2.00;;
18677;SDS011;9469;51.114;13.914;2023-12-20T10:06:30;2.77;;;1.83;;
18677;SDS011;9469;51.114;13.914;2023-12-20T10:11:39;3.07;;;2.13;;
18677;SDS011;9469;51.114;13.914;2023-12-20T10:16:46;3.10;;;2.10;;
18677;SDS011;9469;51.114;13.914;2023-12-20T10:21:54;3.90;;;1.90;;
18677;SDS011;9469;51.114;13.914;2023-12-20T10:27:01;6.57;;;1.80;;
18677;SDS011;9469;51.114;13.914;2023-12-20T10:32:24;5.60;;;1.80;;
18677;SDS011;9469;51.114;13.914;2023-12-20T10:37:37;3.10;;;2.03;;
18677;SDS011;9469;51.114;13.914;2023-12-20T10:42:43;4.90;;;1.70;;
18677;SDS011;9469;51.114;13.914;2023-12-20T10:47:51;5.07;;;2.10;;
18677;SDS011;9469;51.114;13.914;2023-12-20T10:53:02;6.30;;;2.70;;
18677;SDS011;9469;51.114;13.914;2023-12-20T10:58:11;3.83;;;2.07;;
18677;SDS011;9469;51.114;13.914;2023-12-20T11:03:27;2.80;;;1.57;;
18677;SDS011;9469;51.114;13.914;2023-12-20T11:08:38;3.00;;;1.90;;
18677;SDS011;9469;51.114;13.914;2023-12-20T11:13:53;5.07;;;2.03;;
18677;SDS011;9469;51.114;13.914;2023-12-20T11:19:04;3.77;;;2.17;;
18677;SDS011;9469;51.114;13.914;2023-12-20T11:24:14;4.07;;;2.17;;
18677;SDS011;9469;51.114;13.914;2023-12-20T11:29:32;2.87;;;1.90;;
18677;SDS011;9469;51.114;13.914;2023-12-20T11:34:41;7.70;;;2.30;;
18677;SDS011;9469;51.114;13.914;2023-12-20T11:39:56;7.20;;;2.50;;
18677;SDS011;9469;51.114;13.914;2023-12-20T11:45:07;4.17;;;2.33;;
18677;SDS011;9469;51.114;13.914;2023-12-20T11:50:17;5.87;;;2.60;;
18677;SDS011;9469;51.114;13.914;2023-12-20T11:55:25;6.53;;;2.43;;
18677;SDS011;9469;51.114;13.914;2023-12-20T12:00:32;9.57;;;2.37;;
18677;SDS011;9469;51.114;13.914;2023-12-20T12:05:38;7.40;;;2.27;;
18677;SDS011;9469;51.114;13.914;2023-12-20T12:10:48;5.07;;;2.50;;
18677;SDS011;9469;51.114;13.914;2023-12-20T12:15:53;6.10;;;2.70;;
18677;SDS011;9469;51.114;13.914;2023-12-20T12:21:01;5.53;;;1.87;;
18677;SDS011;9469;51.114;13.914;2023-12-20T12:26:19;4.93;;;2.00;;
18677;SDS011;9469;51.114;13.914;2023-12-20T12:31:24;4.53;;;1.83;;
18677;SDS011;9469;51.114;13.914;2023-12-20T12:36:33;4.43;;;2.10;;
18677;SDS011;9469;51.114;13.914;2023-12-20T12:41:41;6.60;;;1.97;;
18677;SDS011;9469;51.114;13.914;2023-12-20T12:46:50;4.77;;;2.20;;
18677;SDS011;9469;51.114;13.914;2023-12-20T12:51:56;5.20;;;2.20;;
18677;SDS011;9469;51.114;13.914;2023-12-20T12:57:10;4.03;;;1.83;;
18677;SDS011;9469;51.114;13.914;2023-12-20T13:02:17;2.30;;;1.93;;
18677;SDS011;9469;51.114;13.914;2023-12-20T13:07:23;2.40;;;1.60;;
18677;SDS011;9469;51.114;13.914;2023-12-20T13:12:32;6.53;;;3.00;;
18677;SDS011;9469;51.114;13.914;2023-12-20T13:17:39;6.60;;;2.80;;
18677;SDS011;9469;51.114;13.914;2023-12-20T13:22:46;6.67;;;2.00;;
18677;SDS011;9469;51.114;13.914;2023-12-20T13:27:54;4.23;;;2.30;;
18677;SDS011;9469;51.114;13.914;2023-12-20T13:33:01;8.30;;;2.60;;
18677;SDS011;9469;51.114;13.914;2023-12-20T13:38:07;7.73;;;2.10;;
18677;SDS011;9469;51.114;13.914;2023-12-20T13:43:19;3.13;;;2.10;;
18677;SDS011;9469;51.114;13.914;2023-12-20T13:48:25;5.20;;;2.33;;
18677;SDS011;9469;51.114;13.914;2023-12-20T13:53:30;4.57;;;1.93;;
18677;SDS011;9469;51.114;13.914;2023-12-20T13:58:45;3.80;;;1.87;;
18677;SDS011;9469;51.114;13.914;2023-12-20T14:03:52;7.37;;;2.17;;
18677;SDS011;9469;51.114;13.914;2023-12-20T14:08:58;5.53;;;2.03;;
18677;SDS011;9469;51.114;13.914;2023-12-20T14:14:10;5.83;;;2.57;;
18677;SDS011;9469;51.114;13.914;2023-12-20T14:19:16;4.47;;;1.60;;
18677;SDS011;9469;51.114;13.914;2023-12-20T14:24:27;3.93;;;2.47;;
18677;SDS011;9469;51.114;13.914;2023-12-20T14:29:37;5.10;;;1.87;;
18677;SDS011;9469;51.114;13.914;2023-12-20T14:34:43;5.80;;;2.93;;
18677;SDS011;9469;51.114;13.914;2023-12-20T14:39:48;4.60;;;2.23;;
18677;SDS011;9469;51.114;13.914;2023-12-20T14:45:00;3.40;;;1.40;;
18677;SDS011;9469;51.114;13.914;2023-12-20T14:50:06;4.87;;;1.80;;
18677;SDS011;9469;51.114;13.914;2023-12-20T14:55:13;4.03;;;1.80;;
18677;SDS011;9469;51.114;13.914;2023-12-20T15:00:22;1.83;;;1.70;;
18677;SDS011;9469;51.114;13.914;2023-12-20T15:11:53;3.53;;;1.67;;
18677;SDS011;9469;51.114;13.914;2023-12-20T15:17:03;7.30;;;1.73;;
18677;SDS011;9469;51.114;13.914;2023-12-20T15:22:12;2.80;;;1.70;;
18677;SDS011;9469;51.114;13.914;2023-12-20T15:27:17;4.03;;;1.80;;
18677;SDS011;9469;51.114;13.914;2023-12-20T15:32:28;5.17;;;2.07;;
18677;SDS011;9469;51.114;13.914;2023-12-20T15:37:36;3.20;;;2.00;;
18677;SDS011;9469;51.114;13.914;2023-12-20T15:42:43;3.37;;;1.50;;
18677;SDS011;9469;51.114;13.914;2023-12-20T15:47:51;1.70;;;1.60;;
18677;SDS011;9469;51.114;13.914;2023-12-20T15:52:56;4.50;;;1.93;;
18677;SDS011;9469;51.114;13.914;2023-12-20T15:58:02;3.70;;;1.77;;
18677;SDS011;9469;51.114;13.914;2023-12-20T16:03:11;3.47;;;1.83;;
18677;SDS011;9469;51.114;13.914;2023-12-20T16:08:26;3.00;;;1.50;;
18677;SDS011;9469;51.114;13.914;2023-12-20T16:13:32;5.13;;;2.17;;
18677;SDS011;9469;51.114;13.914;2023-12-20T16:18:41;2.47;;;2.23;;
18677;SDS011;9469;51.114;13.914;2023-12-20T16:23:48;2.77;;;2.30;;
18677;SDS011;9469;51.114;13.914;2023-12-20T16:28:54;4.60;;;2.10;;
18677;SDS011;9469;51.114;13.914;2023-12-20T16:34:02;6.00;;;1.90;;
18677;SDS011;9469;51.114;13.914;2023-12-20T16:39:09;3.30;;;1.70;;
18677;SDS011;9469;51.114;13.914;2023-12-20T16:44:16;4.53;;;1.90;;
18677;SDS011;9469;51.114;13.914;2023-12-20T16:49:27;3.37;;;2.00;;
18677;SDS011;9469;51.114;13.914;2023-12-20T16:54:32;4.13;;;2.03;;
18677;SDS011;9469;51.114;13.914;2023-12-20T16:59:41;3.87;;;2.50;;
18677;SDS011;9469;51.114;13.914;2023-12-20T17:04:51;4.53;;;2.23;;
18677;SDS011;9469;51.114;13.914;2023-12-20T17:09:57;5.77;;;2.00;;
18677;SDS011;9469;51.114;13.914;2023-12-20T17:15:02;4.40;;;2.40;;
18677;SDS011;9469;51.114;13.914;2023-12-20T17:20:15;3.90;;;2.37;;
18677;SDS011;9469;51.114;13.914;2023-12-20T17:25:21;5.20;;;2.90;;
18677;SDS011;9469;51.114;13.914;2023-12-20T17:30:28;3.67;;;2.57;;
18677;SDS011;9469;51.114;13.914;2023-12-20T17:35:36;9.63;;;2.90;;
18677;SDS011;9469;51.114;13.914;2023-12-20T17:40:41;7.10;;;2.70;;
18677;SDS011;9469;51.114;13.914;2023-12-20T17:45:47;4.97;;;2.73;;
18677;SDS011;9469;51.114;13.914;2023-12-20T17:50:55;3.43;;;2.73;;
18677;SDS011;9469;51.114;13.914;2023-12-20T17:56:12;5.90;;;2.37;;
18677;SDS011;9469;51.114;13.914;2023-12-20T18:01:25;5.10;;;2.60;;
18677;SDS011;9469;51.114;13.914;2023-12-20T18:06:33;6.87;;;2.80;;
18677;SDS011;9469;51.114;13.914;2023-12-20T18:11:38;5.17;;;2.73;;
18677;SDS011;9469;51.114;13.914;2023-12-20T18:16:45;2.97;;;2.30;;
18677;SDS011;9469;51.114;13.914;2023-12-20T18:21:53;5.97;;;2.40;;
18677;SDS011;9469;51.114;13.914;2023-12-20T18:27:01;6.13;;;2.10;;
18677;SDS011;9469;51.114;13.914;2023-12-20T18:32:06;6.47;;;2.30;;
18677;SDS011;9469;51.114;13.914;2023-12-20T18:37:17;4.23;;;2.20;;
18677;SDS011;9469;51.114;13.914;2023-12-20T18:42:22;4.17;;;2.47;;
18677;SDS011;9469;51.114;13.914;2023-12-20T18:47:27;5.33;;;2.73;;
18677;SDS011;9469;51.114;13.914;2023-12-20T18:52:35;4.83;;;2.53;;
18677;SDS011;9469;51.114;13.914;2023-12-20T18:57:45;3.20;;;2.50;;
18677;SDS011;9469;51.114;13.914;2023-12-20T19:02:50;6.67;;;2.70;;
18677;SDS011;9469;51.114;13.914;2023-12-20T19:08:01;6.07;;;2.77;;
18677;SDS011;9469;51.114;13.914;2023-12-20T19:13:06;2.70;;;2.47;;
18677;SDS011;9469;51.114;13.914;2023-12-20T19:18:12;3.37;;;2.50;;
18677;SDS011;9469;51.114;13.914;2023-12-20T19:23:20;3.60;;;2.43;;
18677;SDS011;9469;51.114;13.914;2023-12-20T19:28:26;1.90;;;1.80;;
18677;SDS011;9469;51.114;13.914;2023-12-20T19:33:35;5.07;;;1.87;;
18677;SDS011;9469;51.114;13.914;2023-12-20T19:38:44;5.80;;;2.17;;
18677;SDS011;9469;51.114;13.914;2023-12-20T19:43:52;4.93;;;2.03;;
18677;SDS011;9469;51.114;13.914;2023-12-20T19:49:09;2.73;;;1.77;;
18677;SDS011;9469;51.114;13.914;2023-12-20T19:54:20;2.67;;;1.90;;
18677;SDS011;9469;51.114;13.914;2023-12-20T19:59:25;2.03;;;1.87;;
18677;SDS011;9469;51.114;13.914;2023-12-20T20:04:30;2.40;;;2.13;;
18677;SDS011;9469;51.114;13.914;2023-12-20T20:09:40;4.10;;;2.10;;
18677;SDS011;9469;51.114;13.914;2023-12-20T20:14:45;3.57;;;2.33;;
18677;SDS011;9469;51.114;13.914;2023-12-20T20:19:50;5.90;;;3.03;;
18677;SDS011;9469;51.114;13.914;2023-12-20T20:25:01;4.10;;;2.90;;
18677;SDS011;9469;51.114;13.914;2023-12-20T20:30:12;6.17;;;3.37;;
18677;SDS011;9469;51.114;13.914;2023-12-20T20:35:20;4.67;;;3.03;;
18677;SDS011;9469;51.114;13.914;2023-12-20T20:40:28;5.63;;;3.53;;
18677;SDS011;9469;51.114;13.914;2023-12-20T20:45:34;4.37;;;2.90;;
18677;SDS011;9469;51.114;13.914;2023-12-20T20:50:39;4.70;;;3.30;;
18677;SDS011;9469;51.114;13.914;2023-12-20T20:55:47;6.93;;;3.20;;
18677;SDS011;9469;51.114;13.914;2023-12-20T21:00:52;3.30;;;3.00;;
18677;SDS011;9469;51.114;13.914;2023-12-20T21:05:58;3.90;;;2.30;;
18677;SDS011;9469;51.114;13.914;2023-12-20T21:11:06;4.00;;;2.50;;
18677;SDS011;9469;51.114;13.914;2023-12-20T21:16:12;2.53;;;1.83;;
18677;SDS011;9469;51.114;13.914;2023-12-20T21:21:22;3.40;;;1.70;;
18677;SDS011;9469;51.114;13.914;2023-12-20T21:26:32;2.10;;;1.80;;
18677;SDS011;9469;51.114;13.914;2023-12-20T21:31:37;1.97;;;1.77;;
18677;SDS011;9469;51.114;13.914;2023-12-20T21:36:42;2.90;;;1.70;;
18677;SDS011;9469;51.114;13.914;2023-12-20T21:41:52;3.10;;;2.43;;
18677;SDS011;9469;51.114;13.914;2023-12-20T21:46:58;2.23;;;2.03;;
18677;SDS011;9469;51.114;13.914;2023-12-20T21:52:03;1.80;;;1.70;;
18677;SDS011;9469;51.114;13.914;2023-12-20T21:57:11;1.97;;;1.80;;
18677;SDS011;9469;51.114;13.914;2023-12-20T22:02:16;2.27;;;2.07;;
18677;SDS011;9469;51.114;13.914;2023-12-20T22:07:22;1.93;;;1.73;;
18677;SDS011;9469;51.114;13.914;2023-12-20T22:12:32;1.70;;;1.60;;
18677;SDS011;9469;51.114;13.914;2023-12-20T22:17:37;2.07;;;1.90;;
18677;SDS011;9469;51.114;13.914;2023-12-20T22:22:43;1.93;;;1.80;;
18677;SDS011;9469;51.114;13.914;2023-12-20T22:27:51;1.97;;;1.73;;
18677;SDS011;9469;51.114;13.914;2023-12-20T22:32:56;3.73;;;1.67;;
18677;SDS011;9469;51.114;13.914;2023-12-20T22:38:02;2.57;;;1.20;;
18677;SDS011;9469;51.114;13.914;2023-12-20T22:43:12;1.50;;;1.40;;
18677;SDS011;9469;51.114;13.914;2023-12-20T22:48:17;1.47;;;1.37;;
18677;SDS011;9469;51.114;13.914;2023-12-20T22:53:23;1.30;;;1.20;;
18677;SDS011;9469;51.114;13.914;2023-12-20T22:58:31;2.50;;;1.47;;
18677;SDS011;9469;51.114;13.914;2023-12-20T23:03:38;1.60;;;1.47;;
18677;SDS011;9469;51.114;13.914;2023-12-20T23:08:43;1.30;;;1.13;;
18677;SDS011;9469;51.114;13.914;2023-12-20T23:13:51;1.67;;;1.57;;
18677;SDS011;9469;51.114;13.914;2023-12-20T23:19:07;1.97;;;1.83;;
18677;SDS011;9469;51.114;13.914;2023-12-20T23:24:13;1.90;;;1.80;;
18677;SDS011;9469;51.114;13.914;2023-12-20T23:29:21;1.17;;;1.00;;
18677;SDS011;9469;51.114;13.914;2023-12-20T23:34:27;2.23;;;1.47;;
18677;SDS011;9469;51.114;13.914;2023-12-20T23:39:33;1.83;;;1.73;;
18677;SDS011;9469;51.114;13.914;2023-12-20T23:44:40;1.33;;;1.23;;
18677;SDS011;9469;51.114;13.914;2023-12-20T23:49:45;1.63;;;1.43;;
18677;SDS011;9469;51.114;13.914;2023-12-20T23:54:51;1.37;;;1.30;;
18677;SDS011;9469;51.114;13.914;2023-12-20T23:59:58;2.27;;;1.10;;
